createdAt,value
2023-06-17T00:02:04.662Z,98.32
2023-06-17T00:07:08.613Z,98.27
2023-06-17T00:12:13.584Z,98.56
2023-06-17T00:17:17.765Z,98.21
2023-06-17T00:22:21.305Z,97.90
2023-06-17T00:27:24.915Z,98.35
2023-06-17T00:32:29.679Z,98.95
2023-06-17T00:37:34.014Z,99.27
2023-06-17T00:42:37.950Z,99.42
2023-06-17T00:47:42.800Z,99.00
2023-06-17T00:52:47.250Z,97.99
2023-06-17T00:57:52.239Z,97.55
2023-06-17T01:02:57.897Z,97.36
2023-06-17T01:08:32.416Z,98.01
2023-06-17T01:13:36.930Z,97.42
2023-06-17T01:18:41.940Z,97.43
2023-06-17T01:23:54.111Z,97.38
2023-06-17T01:29:01.247Z,96.94
2023-06-17T01:34:06.134Z,96.03
2023-06-17T01:39:14.845Z,95.55
2023-06-17T01:44:20.851Z,95.50
2023-06-17T01:49:24.468Z,95.53
2023-06-17T01:54:28.955Z,95.68
2023-06-17T01:59:32.794Z,96.16
2023-06-17T02:04:36.547Z,96.86
2023-06-17T02:09:40.168Z,97.59
2023-06-17T02:14:43.765Z,98.53
2023-06-17T02:19:47.367Z,99.22
2023-06-17T02:24:50.897Z,99.40
2023-06-17T02:29:54.449Z,99.70
2023-06-17T02:34:58.741Z,100.00
2023-06-17T02:40:02.665Z,100.00
2023-06-17T02:45:08.410Z,100.00
2023-06-17T02:50:12.105Z,99.71
2023-06-17T02:55:16.684Z,99.67
2023-06-17T03:00:22.103Z,99.31
2023-06-17T03:05:25.898Z,99.27
2023-06-17T03:10:29.518Z,99.53
2023-06-17T03:15:33.080Z,100.00
2023-06-17T03:20:39.278Z,100.00
2023-06-17T03:25:44.069Z,100.00
2023-06-17T03:30:47.806Z,100.00
2023-06-17T03:35:51.491Z,100.00
2023-06-17T03:40:55.000Z,100.00
2023-06-17T03:45:58.533Z,100.00
2023-06-17T03:51:03.336Z,100.00
2023-06-17T03:56:07.498Z,100.00
2023-06-17T04:01:14.087Z,100.00
2023-06-17T04:06:18.108Z,100.00
2023-06-17T04:11:21.526Z,100.00
2023-06-17T04:16:24.948Z,100.00
2023-06-17T04:21:29.446Z,100.00
2023-06-17T04:26:33.587Z,97.15
2023-06-17T04:31:41.277Z,91.13
2023-06-17T04:36:44.928Z,89.11
2023-06-17T04:41:48.647Z,88.61
2023-06-17T04:46:52.248Z,85.38
2023-06-17T04:51:57.280Z,83.72
2023-06-17T04:57:01.252Z,82.00
2023-06-17T05:02:05.197Z,80.41
2023-06-17T05:07:09.315Z,79.51
2023-06-17T05:12:12.694Z,77.00
2023-06-17T05:17:16.347Z,76.13
2023-06-17T05:22:20.117Z,75.37
2023-06-17T05:27:24.927Z,73.25
2023-06-17T05:32:28.547Z,73.03
2023-06-17T05:37:33.106Z,72.73
2023-06-17T05:42:37.255Z,73.05
2023-06-17T05:47:40.915Z,72.75
2023-06-17T05:52:46.756Z,72.90
2023-06-17T05:57:52.930Z,72.24
2023-06-17T06:02:58.521Z,72.12
2023-06-17T06:08:02.087Z,71.24
2023-06-17T06:13:06.290Z,71.25
2023-06-17T06:18:09.842Z,70.89
2023-06-17T06:23:13.267Z,71.20
2023-06-17T06:28:16.825Z,70.92
2023-06-17T06:33:20.678Z,70.89
2023-06-17T06:38:24.312Z,70.91
2023-06-17T06:43:27.640Z,70.76
2023-06-17T06:48:31.763Z,71.10
2023-06-17T06:53:35.959Z,70.28
2023-06-17T06:58:39.453Z,69.35
2023-06-17T07:03:43.201Z,68.71
2023-06-17T07:08:46.830Z,69.46
2023-06-17T07:13:50.596Z,67.88
2023-06-17T07:18:54.339Z,67.57
2023-06-17T07:23:57.903Z,67.91
2023-06-17T07:29:02.796Z,66.29
2023-06-17T07:34:06.258Z,67.92
2023-06-17T07:39:09.898Z,64.35
2023-06-17T07:44:13.738Z,61.75
2023-06-17T07:49:17.267Z,60.90
2023-06-17T07:54:20.998Z,58.91
2023-06-17T07:59:24.598Z,59.52
2023-06-17T08:04:28.174Z,55.94
2023-06-17T08:09:31.935Z,54.20
2023-06-17T08:14:35.886Z,55.47
2023-06-17T08:19:39.444Z,55.14
2023-06-17T08:24:43.291Z,53.84
2023-06-17T08:29:46.747Z,54.31
2023-06-17T08:34:50.676Z,52.96
2023-06-17T08:39:54.063Z,53.97
2023-06-17T08:45:04.022Z,54.39
2023-06-17T08:50:08.581Z,55.57
2023-06-17T08:55:12.452Z,56.99
2023-06-17T09:00:16.958Z,57.60
2023-06-17T09:05:20.392Z,57.61
2023-06-17T09:10:24.182Z,57.51
2023-06-17T09:15:27.816Z,55.81
2023-06-17T09:20:33.921Z,56.67
2023-06-17T09:25:37.775Z,56.17
2023-06-17T09:30:43.908Z,57.25
2023-06-17T09:35:48.860Z,55.97
2023-06-17T09:40:53.790Z,55.60
2023-06-17T09:46:01.215Z,55.44
2023-06-17T09:51:10.571Z,55.49
2023-06-17T09:56:15.122Z,52.66
2023-06-17T10:01:18.990Z,53.75
2023-06-17T10:06:24.957Z,52.76
2023-06-17T10:11:30.536Z,52.03
2023-06-17T10:16:39.893Z,52.56
2023-06-17T10:21:47.918Z,51.80
2023-06-17T10:26:53.035Z,51.08
2023-06-17T10:31:56.592Z,49.69
2023-06-17T10:37:02.202Z,50.45
2023-06-17T10:42:14.643Z,48.39
2023-06-17T10:47:23.593Z,49.69
2023-06-17T10:52:31.423Z,48.63
2023-06-17T10:57:37.873Z,48.81
2023-06-17T11:02:41.850Z,49.01
2023-06-17T11:07:45.717Z,49.69
2023-06-17T11:12:51.189Z,49.27
2023-06-17T11:18:04.879Z,49.55
2023-06-17T11:23:08.790Z,49.32
2023-06-17T11:28:13.059Z,47.35
2023-06-17T11:33:21.527Z,47.14
2023-06-17T11:38:25.891Z,46.29
2023-06-17T11:43:30.126Z,46.19
2023-06-17T11:48:37.638Z,45.53
2023-06-17T11:53:41.235Z,45.55
2023-06-17T11:58:46.145Z,45.97
2023-06-17T12:03:49.748Z,46.40
2023-06-17T12:09:07.276Z,44.81
2023-06-17T12:14:13.875Z,44.26
2023-06-17T12:19:25.401Z,44.81
2023-06-17T12:24:29.206Z,43.59
2023-06-17T12:29:32.700Z,43.19
2023-06-17T12:34:36.473Z,43.63
2023-06-17T12:39:40.944Z,40.82
2023-06-17T12:44:45.998Z,44.08
2023-06-17T12:49:50.743Z,44.41
2023-06-17T12:55:02.140Z,42.33
2023-06-17T13:00:07.522Z,41.13
2023-06-17T13:05:11.366Z,41.21
2023-06-17T13:10:14.999Z,42.80
2023-06-17T13:15:18.522Z,41.83
2023-06-17T13:20:23.242Z,41.28
2023-06-17T13:25:27.893Z,41.97
2023-06-17T13:30:31.765Z,41.94
2023-06-17T13:35:35.505Z,39.49
2023-06-17T13:40:39.538Z,38.85
2023-06-17T13:45:43.336Z,40.01
2023-06-17T13:50:50.024Z,40.07
2023-06-17T13:55:53.798Z,40.33
2023-06-17T14:00:57.489Z,40.35
2023-06-17T14:06:01.028Z,40.24
2023-06-17T14:11:04.884Z,40.39
2023-06-17T14:16:09.020Z,41.07
2023-06-17T14:21:33.947Z,42.29
2023-06-17T14:26:40.834Z,41.04
2023-06-17T14:31:45.550Z,41.27
2023-06-17T14:36:49.441Z,40.90
2023-06-17T14:41:53.346Z,40.96
2023-06-17T14:46:57.299Z,40.83
2023-06-17T14:52:01.959Z,40.14
2023-06-17T14:57:06.391Z,39.35
2023-06-17T15:02:49.523Z,39.85
2023-06-17T15:07:53.249Z,40.89
2023-06-17T15:12:56.752Z,39.97
2023-06-17T15:18:00.481Z,39.43
2023-06-17T15:23:04.632Z,38.15
2023-06-17T15:28:08.662Z,37.10
2023-06-17T15:33:12.729Z,37.70
2023-06-17T15:38:19.016Z,37.98
2023-06-17T15:43:23.001Z,38.84
2023-06-17T15:48:26.495Z,38.67
2023-06-17T15:53:30.627Z,38.59
2023-06-17T15:58:34.245Z,37.53
2023-06-17T16:03:39.080Z,37.39
2023-06-17T16:08:43.710Z,38.16
2023-06-17T16:13:50.163Z,38.13
2023-06-17T16:18:56.451Z,39.82
2023-06-17T16:24:00.240Z,40.40
2023-06-17T16:29:05.632Z,40.21
2023-06-17T16:34:09.619Z,40.25
2023-06-17T16:39:13.567Z,40.97
2023-06-17T16:44:17.317Z,40.03
2023-06-17T16:49:22.490Z,41.32
2023-06-17T16:54:26.484Z,39.93
2023-06-17T16:59:30.220Z,39.42
2023-06-17T17:04:34.072Z,39.50
2023-06-17T17:09:40.166Z,39.81
2023-06-17T17:14:45.038Z,41.01
2023-06-17T17:19:49.490Z,40.45
2023-06-17T17:24:55.434Z,41.09
2023-06-17T17:29:59.056Z,42.14
2023-06-17T17:35:03.101Z,42.87
2023-06-17T17:40:07.983Z,43.48
2023-06-17T17:45:11.827Z,44.69
2023-06-17T17:50:15.552Z,45.56
2023-06-17T17:55:19.155Z,44.92
2023-06-17T18:00:24.966Z,45.42
2023-06-17T18:05:28.565Z,44.57
2023-06-17T18:10:32.468Z,44.10
2023-06-17T18:15:36.334Z,44.50
2023-06-17T18:20:40.286Z,44.59
2023-06-17T18:25:44.101Z,44.79
2023-06-17T18:30:47.746Z,45.19
2023-06-17T18:35:51.512Z,45.32
2023-06-17T18:40:55.240Z,45.92
2023-06-17T18:45:58.974Z,46.24
2023-06-17T18:51:03.265Z,46.69
2023-06-17T18:56:06.993Z,47.32
2023-06-17T19:01:10.829Z,47.59
2023-06-17T19:06:14.798Z,48.19
2023-06-17T19:11:18.507Z,48.59
2023-06-17T19:16:22.846Z,49.31
2023-06-17T19:21:26.602Z,49.40
2023-06-17T19:26:30.430Z,50.26
2023-06-17T19:31:34.354Z,51.11
2023-06-17T19:36:38.206Z,52.17
2023-06-17T19:41:41.995Z,53.18
2023-06-17T19:46:46.470Z,54.03
2023-06-17T19:51:52.529Z,54.57
2023-06-17T19:56:56.916Z,55.67
2023-06-17T20:02:01.152Z,56.54
2023-06-17T20:07:05.329Z,56.69
2023-06-17T20:12:09.472Z,56.36
2023-06-17T20:17:13.551Z,55.95
2023-06-17T20:22:17.818Z,55.96
2023-06-17T20:27:21.697Z,55.62
2023-06-17T20:32:25.719Z,56.22
2023-06-17T20:37:29.675Z,56.14
2023-06-17T20:42:33.375Z,56.69
2023-06-17T20:47:46.221Z,56.88
2023-06-17T20:52:53.716Z,57.64
2023-06-17T20:58:02.392Z,57.79
2023-06-17T21:03:06.624Z,57.96
2023-06-17T21:08:10.830Z,58.60
2023-06-17T21:13:14.797Z,58.75
2023-06-17T21:18:18.325Z,58.32
2023-06-17T21:23:21.958Z,58.41
2023-06-17T21:28:25.386Z,57.84
2023-06-17T21:33:28.990Z,56.95
2023-06-17T21:38:32.678Z,56.13
2023-06-17T21:43:36.244Z,55.60
2023-06-17T21:48:43.355Z,55.88
2023-06-17T21:53:46.814Z,55.89
2023-06-17T21:58:50.689Z,56.14
2023-06-17T22:03:54.614Z,56.91
2023-06-17T22:08:58.828Z,57.85
2023-06-17T22:14:02.759Z,58.21
2023-06-17T22:19:06.509Z,59.06
2023-06-17T22:24:12.111Z,59.59
2023-06-17T22:29:15.933Z,60.98
2023-06-17T22:34:19.573Z,61.90
2023-06-17T22:39:23.113Z,62.87
2023-06-17T22:44:26.780Z,63.51
2023-06-17T22:49:30.392Z,63.07
2023-06-17T22:54:34.150Z,62.82
2023-06-17T22:59:37.954Z,63.34
2023-06-17T23:04:43.129Z,64.21
2023-06-17T23:09:46.693Z,64.74
2023-06-17T23:14:50.194Z,65.75
2023-06-17T23:19:54.441Z,66.25
2023-06-17T23:25:02.400Z,66.42
2023-06-17T23:30:09.620Z,66.78
2023-06-17T23:35:13.497Z,67.20
2023-06-17T23:40:17.083Z,68.05
2023-06-17T23:45:39.192Z,69.01
2023-06-17T23:51:00.071Z,70.12
2023-06-17T23:56:04.663Z,70.80
